Time;durP1;ratioP1;P1;durP2;ratioP2;P2;SDS_P1;SDS_P2;PMS_P1;PMS_P2;Temp;Humidity;BMP_temperature;BMP_pressure;BME280_temperature;BME280_humidity;BME280_pressure;Samples;Min_cycle;Max_cycle;Signal;HPM_P1;HPM_P2
2022/07/27 00:01:06;;;;;;;3.15;1.00;;;15.30;99.90;;;;;;4847918;29;20045;-39
2022/07/27 00:03:32;;;;;;;3.53;1.17;;;15.30;99.90;;;;;;4843282;29;20660;-38
2022/07/27 00:05:58;;;;;;;3.30;0.98;;;15.20;99.90;;;;;;4842496;29;20166;-37
2022/07/27 00:08:24;;;;;;;1.33;0.55;;;15.20;99.90;;;;;;4840889;29;20479;-33
2022/07/27 00:10:51;;;;;;;5.10;1.25;;;15.10;99.90;;;;;;4842749;29;20032;-36
2022/07/27 00:13:16;;;;;;;2.08;0.73;;;15.10;99.90;;;;;;4841690;29;20085;-39
2022/07/27 00:15:42;;;;;;;2.72;0.98;;;15.10;99.90;;;;;;4846418;29;20029;-36
2022/07/27 00:18:08;;;;;;;3.13;0.73;;;15.00;99.90;;;;;;4834011;29;20026;-37
2022/07/27 00:20:34;;;;;;;6.85;1.55;;;15.00;99.90;;;;;;4845145;29;20029;-37
2022/07/27 00:22:59;;;;;;;1.25;0.90;;;14.90;99.90;;;;;;4842789;29;20044;-44
2022/07/27 00:25:26;;;;;;;2.97;1.30;;;14.90;99.90;;;;;;4839688;29;20037;-40
2022/07/27 00:27:52;;;;;;;7.47;0.90;;;14.90;99.90;;;;;;4839985;29;20090;-35
2022/07/27 00:30:18;;;;;;;5.57;0.90;;;14.90;99.90;;;;;;4847105;29;20423;-34
2022/07/27 00:32:44;;;;;;;1.83;0.70;;;14.90;99.90;;;;;;4843122;29;20029;-38
2022/07/27 00:35:10;;;;;;;4.78;0.80;;;14.80;99.90;;;;;;4840805;29;20453;-39
2022/07/27 00:37:36;;;;;;;4.28;0.70;;;14.80;99.90;;;;;;4810881;29;20491;-33
2022/07/27 00:40:03;;;;;;;2.88;0.80;;;14.90;99.90;;;;;;4840371;29;20395;-37
2022/07/27 00:42:30;;;;;;;2.50;0.75;;;14.90;99.90;;;;;;4847604;29;20493;-35
2022/07/27 00:44:56;;;;;;;3.35;0.90;;;14.80;99.90;;;;;;4842983;29;20030;-39
2022/07/27 00:47:22;;;;;;;1.38;1.10;;;14.80;99.90;;;;;;4845054;29;20375;-38
2022/07/27 00:49:48;;;;;;;6.78;1.13;;;14.80;99.90;;;;;;4840653;29;20044;-41
2022/07/27 00:52:15;;;;;;;2.22;0.63;;;14.80;99.90;;;;;;4844933;29;20030;-37
2022/07/27 00:54:42;;;;;;;2.70;0.90;;;14.80;99.90;;;;;;4842126;29;20573;-36
2022/07/27 00:57:12;;;;;;;1.85;0.60;;;14.80;99.90;;;;;;4838112;29;20512;-38
2022/07/27 00:59:38;;;;;;;1.55;0.80;;;14.80;99.90;;;;;;4842727;29;20548;-40
2022/07/27 01:02:05;;;;;;;2.10;0.80;;;14.80;99.90;;;;;;4844392;29;20037;-38
2022/07/27 01:04:32;;;;;;;2.90;0.87;;;14.80;99.90;;;;;;4847680;29;20081;-34
2022/07/27 01:06:58;;;;;;;4.43;1.23;;;14.70;99.90;;;;;;4841840;29;20704;-37
2022/07/27 01:12:14;;;;;;;6.22;1.02;;;14.70;99.90;;;;;;4841461;29;20566;-38
2022/07/27 01:14:39;;;;;;;2.42;0.80;;;14.60;99.90;;;;;;4834018;29;20034;-33
2022/07/27 01:17:06;;;;;;;1.50;0.55;;;14.60;99.90;;;;;;4813833;29;20442;-40
2022/07/27 01:19:34;;;;;;;5.80;0.85;;;14.60;99.90;;;;;;4835574;29;20470;-35
2022/07/27 01:22:04;;;;;;;4.70;0.90;;;14.60;99.90;;;;;;4841033;29;20129;-43
2022/07/27 01:24:29;;;;;;;2.47;0.38;;;14.70;99.90;;;;;;4836726;29;20038;-73
2022/07/27 01:26:55;;;;;;;4.47;1.85;;;14.70;99.90;;;;;;4840981;29;20864;-38
2022/07/27 01:29:20;;;;;;;3.13;0.82;;;14.70;99.90;;;;;;4842236;29;20486;-41
2022/07/27 01:31:46;;;;;;;2.38;0.80;;;14.70;99.90;;;;;;4844871;29;20033;-38
2022/07/27 01:34:12;;;;;;;3.00;1.00;;;14.70;99.90;;;;;;4832882;29;20592;-36
2022/07/27 01:36:37;;;;;;;4.43;0.98;;;14.80;99.90;;;;;;4842024;29;20081;-32
2022/07/27 01:39:03;;;;;;;1.45;0.70;;;14.80;99.90;;;;;;4830699;29;20121;-39
2022/07/27 01:41:29;;;;;;;1.00;0.65;;;14.80;99.90;;;;;;4831012;29;20427;-36
2022/07/27 01:43:55;;;;;;;2.42;1.00;;;14.80;99.90;;;;;;4838910;29;20058;-35
2022/07/27 01:46:20;;;;;;;2.53;1.00;;;14.80;99.90;;;;;;4826750;29;20501;-42
2022/07/27 01:48:46;;;;;;;6.75;0.68;;;14.80;99.90;;;;;;4836508;29;20050;-38
2022/07/27 01:51:11;;;;;;;3.78;0.95;;;14.80;99.90;;;;;;4841203;29;20044;-35
2022/07/27 01:53:37;;;;;;;2.42;0.73;;;14.90;99.90;;;;;;4828986;29;20037;-38
2022/07/27 01:56:03;;;;;;;2.65;1.08;;;14.80;99.90;;;;;;4849401;29;20034;-35
2022/07/27 01:58:28;;;;;;;4.65;0.55;;;14.80;99.90;;;;;;4848135;29;20509;-34
2022/07/27 02:00:54;;;;;;;4.57;1.13;;;14.80;99.90;;;;;;4852525;29;20470;-38
2022/07/27 02:03:19;;;;;;;3.75;1.15;;;14.80;99.90;;;;;;4839624;29;20042;-38
2022/07/27 02:05:45;;;;;;;4.28;1.00;;;14.80;99.90;;;;;;4826461;29;20045;-35
2022/07/27 02:08:12;;;;;;;3.40;1.00;;;14.80;99.90;;;;;;4840618;29;20040;-37
2022/07/27 02:12:34;;;;;;;3.17;0.90;;;14.70;99.90;;;;;;4845741;29;20242;-37
2022/07/27 02:13:24;;;;;;;4.72;0.90;;;14.70;99.90;;;;;;4836526;29;20073;-40
2022/07/27 02:15:49;;;;;;;2.90;1.30;;;14.70;99.90;;;;;;4845741;29;20087;-32
2022/07/27 02:18:15;;;;;;;3.17;0.80;;;14.70;99.90;;;;;;4845714;29;20038;-39
2022/07/27 02:20:41;;;;;;;2.50;0.80;;;14.70;99.90;;;;;;4842909;29;20025;-44
2022/07/27 02:23:07;;;;;;;2.70;0.80;;;14.70;99.90;;;;;;4841944;29;20106;-40
2022/07/27 02:25:34;;;;;;;1.67;0.90;;;14.80;99.90;;;;;;4846146;29;20387;-36
2022/07/27 02:28:00;;;;;;;3.08;0.40;;;14.80;99.90;;;;;;4837308;29;20506;-39
2022/07/27 02:30:26;;;;;;;3.30;0.80;;;14.80;99.90;;;;;;4837585;29;20037;-37
2022/07/27 02:33:02;;;;;;;2.95;0.80;;;14.70;99.90;;;;;;4845647;29;20104;-38
2022/07/27 02:35:28;;;;;;;1.67;0.88;;;14.70;99.90;;;;;;4827321;29;20057;-43
2022/07/27 02:37:54;;;;;;;1.08;0.75;;;14.70;99.90;;;;;;4836410;29;20026;-37
2022/07/27 02:40:20;;;;;;;2.53;1.30;;;14.70;99.90;;;;;;4835065;29;20061;-36
2022/07/27 02:42:46;;;;;;;1.88;0.90;;;14.70;99.90;;;;;;4842765;29;20402;-41
2022/07/27 02:45:15;;;;;;;2.72;0.85;;;14.70;99.90;;;;;;4831164;29;20037;-35
2022/07/27 02:47:41;;;;;;;1.23;0.80;;;14.70;99.90;;;;;;4847424;29;20640;-38
2022/07/27 02:50:08;;;;;;;6.68;1.10;;;14.80;99.90;;;;;;4849220;29;20048;-33
2022/07/27 02:52:34;;;;;;;5.30;0.50;;;14.80;99.90;;;;;;4838552;29;20029;-37
2022/07/27 02:55:00;;;;;;;1.35;0.80;;;14.80;99.90;;;;;;4838213;29;20030;-35
2022/07/27 02:57:26;;;;;;;1.98;0.75;;;14.80;99.90;;;;;;4844476;29;20446;-35
2022/07/27 02:59:51;;;;;;;2.65;1.02;;;14.80;99.90;;;;;;4837348;29;20061;-38
2022/07/27 03:02:17;;;;;;;0.77;0.63;;;14.80;99.90;;;;;;4838367;29;20030;-35
2022/07/27 03:04:42;;;;;;;1.98;0.70;;;14.80;99.90;;;;;;4840147;29;20111;-36
2022/07/27 03:07:08;;;;;;;2.70;1.02;;;14.80;99.90;;;;;;4838356;29;20030;-50
2022/07/27 03:09:34;;;;;;;2.17;0.80;;;14.90;99.90;;;;;;4842338;29;20485;-35
2022/07/27 03:12:08;;;;;;;1.15;0.80;;;14.90;99.90;;;;;;4851562;29;20030;-37
2022/07/27 03:14:34;;;;;;;1.92;0.90;;;14.90;99.90;;;;;;4831091;29;20064;-36
2022/07/27 03:17:00;;;;;;;3.55;0.60;;;14.90;99.90;;;;;;4842579;29;20034;-37
2022/07/27 03:19:25;;;;;;;2.92;0.80;;;14.80;99.90;;;;;;4834087;29;20038;-32
2022/07/27 03:21:51;;;;;;;1.95;0.80;;;14.90;99.90;;;;;;4839555;29;20061;-46
2022/07/27 03:24:17;;;;;;;1.48;0.55;;;14.90;99.90;;;;;;4835217;29;20399;-37
2022/07/27 03:26:42;;;;;;;2.60;0.70;;;14.90;99.90;;;;;;4839064;29;20030;-37
2022/07/27 03:29:08;;;;;;;6.97;1.00;;;14.90;99.90;;;;;;4839047;29;20065;-37
2022/07/27 03:31:34;;;;;;;3.10;0.90;;;15.00;99.90;;;;;;4820943;29;20697;-37
2022/07/27 03:33:59;;;;;;;2.75;0.88;;;15.00;99.90;;;;;;4842682;29;21038;-38
2022/07/27 03:36:25;;;;;;;2.58;0.80;;;15.00;99.90;;;;;;4841546;29;20069;-34
2022/07/27 03:38:50;;;;;;;3.63;0.82;;;15.10;99.90;;;;;;4841410;29;20527;-40
2022/07/27 03:41:16;;;;;;;1.55;0.60;;;15.10;99.90;;;;;;4844025;29;20033;-40
2022/07/27 03:43:42;;;;;;;3.78;0.80;;;15.20;99.90;;;;;;4836675;29;20139;-34
2022/07/27 03:46:08;;;;;;;2.50;0.80;;;15.20;99.90;;;;;;4817884;29;20487;-37
2022/07/27 03:48:33;;;;;;;2.70;0.60;;;15.30;99.90;;;;;;4838662;29;20034;-36
2022/07/27 03:50:59;;;;;;;1.25;0.73;;;15.30;99.90;;;;;;4839061;29;20165;-37
2022/07/27 03:53:25;;;;;;;2.85;0.70;;;15.30;99.90;;;;;;4837529;29;20061;-37
2022/07/27 03:55:50;;;;;;;0.55;0.50;;;15.30;99.90;;;;;;4842443;29;20831;-32
2022/07/27 03:58:16;;;;;;;7.68;0.98;;;15.30;99.90;;;;;;4834302;29;20026;-37
2022/07/27 04:00:43;;;;;;;2.50;0.90;;;15.30;99.90;;;;;;4832798;29;20162;-38
2022/07/27 04:03:09;;;;;;;4.88;0.98;;;15.20;99.90;;;;;;4835403;29;20030;-37
2022/07/27 04:05:35;;;;;;;3.80;0.90;;;15.20;99.90;;;;;;4843897;29;20033;-36
2022/07/27 04:08:00;;;;;;;2.13;1.30;;;15.20;99.90;;;;;;4846976;29;20451;-36
2022/07/27 04:10:26;;;;;;;1.67;0.88;;;15.30;99.90;;;;;;4836723;29;20030;-60
2022/07/27 04:12:51;;;;;;;5.65;0.90;;;15.30;99.90;;;;;;4839071;29;20125;-37
2022/07/27 04:15:21;;;;;;;8.43;1.27;;;15.30;99.90;;;;;;4832215;29;20037;-38
2022/07/27 04:17:47;;;;;;;3.55;0.93;;;15.30;99.90;;;;;;4838654;29;20554;-37
2022/07/27 04:20:12;;;;;;;4.90;0.82;;;15.30;99.90;;;;;;4847305;29;20374;-36
2022/07/27 04:22:38;;;;;;;1.02;0.95;;;15.30;99.90;;;;;;4836901;29;20226;-37
2022/07/27 04:25:05;;;;;;;2.50;0.93;;;15.30;99.90;;;;;;4851973;29;20538;-39
2022/07/27 04:27:31;;;;;;;6.00;1.02;;;15.40;99.90;;;;;;4841418;29;20046;-50
2022/07/27 04:29:56;;;;;;;4.72;0.90;;;15.40;99.90;;;;;;4836858;29;20048;-34
2022/07/27 04:32:22;;;;;;;2.03;0.70;;;15.40;99.90;;;;;;4838146;29;20026;-39
2022/07/27 04:34:48;;;;;;;1.42;0.70;;;15.50;99.90;;;;;;4841386;29;20030;-36
2022/07/27 04:37:14;;;;;;;2.80;1.20;;;15.40;99.90;;;;;;4841675;29;20491;-38
2022/07/27 04:39:39;;;;;;;2.42;0.77;;;15.40;99.90;;;;;;4837659;29;20057;-34
2022/07/27 04:42:05;;;;;;;5.72;1.10;;;15.40;99.90;;;;;;4841327;29;20029;-38
2022/07/27 04:44:30;;;;;;;4.50;1.00;;;15.50;99.90;;;;;;4838595;29;20123;-37
2022/07/27 04:46:56;;;;;;;2.60;1.20;;;15.40;99.90;;;;;;4841534;29;20086;-37
2022/07/27 04:49:22;;;;;;;1.90;0.88;;;15.50;99.90;;;;;;4831781;29;20117;-39
2022/07/27 04:51:47;;;;;;;4.95;0.82;;;15.50;99.90;;;;;;4836056;29;20364;-36
2022/07/27 04:54:13;;;;;;;2.10;1.02;;;15.50;99.90;;;;;;4847037;29;20404;-38
2022/07/27 04:56:38;;;;;;;1.67;1.00;;;15.50;99.90;;;;;;4845768;29;20033;-34
2022/07/27 04:59:04;;;;;;;2.45;0.80;;;15.60;99.90;;;;;;4821053;29;20125;-34
2022/07/27 05:01:30;;;;;;;2.15;0.90;;;15.60;99.90;;;;;;4841754;29;20042;-37
2022/07/27 05:03:55;;;;;;;2.58;0.70;;;15.60;99.90;;;;;;4831294;29;20030;-32
2022/07/27 05:06:21;;;;;;;2.72;0.75;;;15.70;99.90;;;;;;4841186;29;20041;-39
2022/07/27 05:08:46;;;;;;;3.30;0.70;;;15.70;99.90;;;;;;4838269;29;20065;-34
2022/07/27 05:11:12;;;;;;;7.07;1.67;;;15.80;99.90;;;;;;4841361;29;20030;-34
2022/07/27 05:13:40;;;;;;;4.07;0.80;;;15.80;99.90;;;;;;4834386;29;20030;-37
2022/07/27 05:16:10;;;;;;;1.10;0.98;;;15.90;99.90;;;;;;4842919;29;20490;-38
2022/07/27 05:18:37;;;;;;;4.68;1.10;;;16.00;99.90;;;;;;4831003;29;20041;-33
2022/07/27 05:21:03;;;;;;;2.50;0.50;;;16.10;99.90;;;;;;4837660;29;20134;-38
2022/07/27 05:23:28;;;;;;;8.57;1.45;;;16.20;99.90;;;;;;4835065;29;20654;-33
2022/07/27 05:25:54;;;;;;;2.83;1.23;;;16.20;99.90;;;;;;4842823;29;20045;-37
2022/07/27 05:28:20;;;;;;;1.60;0.80;;;16.20;99.90;;;;;;4838486;29;20116;-34
2022/07/27 05:30:45;;;;;;;2.17;0.57;;;16.30;99.90;;;;;;4838126;29;20052;-38
2022/07/27 05:33:11;;;;;;;1.63;0.55;;;16.30;99.90;;;;;;4833487;29;20617;-33
2022/07/27 05:35:37;;;;;;;6.53;0.90;;;16.30;99.90;;;;;;4838612;29;20033;-41
2022/07/27 05:38:03;;;;;;;3.63;1.02;;;16.40;99.90;;;;;;4833907;29;20034;-32
2022/07/27 05:40:29;;;;;;;3.65;0.60;;;16.50;99.90;;;;;;4830023;29;20057;-43
2022/07/27 05:42:55;;;;;;;4.63;0.60;;;16.60;99.90;;;;;;4837499;29;20592;-37
2022/07/27 05:45:20;;;;;;;5.05;0.77;;;16.70;99.90;;;;;;4842623;29;20042;-39
2022/07/27 05:47:46;;;;;;;3.22;0.60;;;16.70;99.90;;;;;;4838906;29;20448;-50
2022/07/27 05:50:12;;;;;;;10.35;0.80;;;16.70;99.90;;;;;;4826450;29;20544;-37
2022/07/27 05:52:37;;;;;;;8.88;0.85;;;16.80;99.90;;;;;;4859844;29;20025;-37
2022/07/27 05:55:04;;;;;;;1.17;0.63;;;16.80;99.90;;;;;;4851909;29;20539;-38
2022/07/27 05:57:29;;;;;;;2.05;0.60;;;16.80;99.90;;;;;;4853135;29;20029;-35
2022/07/27 05:59:57;;;;;;;2.03;0.40;;;16.90;99.90;;;;;;4839619;29;20040;-41
2022/07/27 06:02:22;;;;;;;2.63;0.47;;;16.90;99.90;;;;;;4848838;29;20394;-48
2022/07/27 06:04:48;;;;;;;4.95;0.68;;;16.90;99.90;;;;;;4837104;29;20045;-37
2022/07/27 06:09:59;;;;;;;8.27;0.60;;;17.00;99.90;;;;;;4842223;29;20583;-38
2022/07/27 06:12:25;;;;;;;0.43;0.40;;;17.10;99.90;;;;;;4841814;29;20417;-35
2022/07/27 06:14:51;;;;;;;0.85;0.60;;;17.20;99.90;;;;;;4839173;29;20568;-33
2022/07/27 06:17:16;;;;;;;2.38;0.47;;;17.50;99.90;;;;;;4839886;29;20036;-40
2022/07/27 06:19:42;;;;;;;7.72;0.70;;;18.00;99.90;;;;;;4838073;29;20113;-38
2022/07/27 06:22:07;;;;;;;1.75;0.30;;;18.20;99.90;;;;;;4841357;29;20058;-36
2022/07/27 06:24:33;;;;;;;3.45;0.68;;;18.20;99.90;;;;;;4823293;29;21799;-38
2022/07/27 06:26:59;;;;;;;3.33;0.50;;;18.50;99.90;;;;;;4843035;29;20036;-38
2022/07/27 06:29:25;;;;;;;1.52;0.40;;;18.70;99.90;;;;;;4843654;29;20411;-37
2022/07/27 06:31:50;;;;;;;4.00;0.85;;;18.90;99.90;;;;;;4840887;29;20044;-39
2022/07/27 06:34:16;;;;;;;2.17;0.52;;;19.30;99.90;;;;;;4839520;29;20033;-42
2022/07/27 06:36:43;;;;;;;0.73;0.50;;;19.20;99.90;;;;;;4858489;29;20774;-37
2022/07/27 06:39:10;;;;;;;2.05;0.50;;;19.00;99.90;;;;;;4851051;29;20172;-38
2022/07/27 06:41:36;;;;;;;8.13;1.27;;;19.60;99.90;;;;;;4848222;29;20037;-38
2022/07/27 06:44:01;;;;;;;6.28;0.93;;;20.60;99.90;;;;;;4836741;29;20429;-39
2022/07/27 06:46:27;;;;;;;4.80;0.50;;;21.90;98.90;;;;;;4812678;29;20646;-37
2022/07/27 06:48:55;;;;;;;4.50;0.60;;;22.30;98.20;;;;;;4836769;29;20044;-38
2022/07/27 06:51:21;;;;;;;7.47;0.60;;;22.10;98.30;;;;;;4835288;29;20562;-33
2022/07/27 06:53:47;;;;;;;4.28;0.80;;;21.30;98.60;;;;;;4831161;29;20034;-37
2022/07/27 06:56:12;;;;;;;4.45;0.77;;;20.70;99.50;;;;;;4826771;29;20026;-36
2022/07/27 06:58:38;;;;;;;2.85;0.75;;;20.70;99.00;;;;;;4837719;29;20217;-40
2022/07/27 07:01:04;;;;;;;3.38;0.50;;;21.10;98.80;;;;;;4828863;29;20078;-38
2022/07/27 07:03:29;;;;;;;0.88;0.75;;;21.40;99.00;;;;;;4844608;29;20044;-39
2022/07/27 07:05:56;;;;;;;2.55;0.70;;;21.80;98.80;;;;;;4842335;29;20030;-34
2022/07/27 07:08:21;;;;;;;3.05;0.50;;;22.10;97.20;;;;;;4845075;29;20041;-36
2022/07/27 07:10:48;;;;;;;1.98;0.73;;;22.10;96.80;;;;;;4841459;29;20424;-36
2022/07/27 07:13:14;;;;;;;3.30;0.70;;;21.80;95.70;;;;;;4818490;29;20037;-34
2022/07/27 07:15:41;;;;;;;1.95;0.52;;;21.40;96.40;;;;;;4839009;29;20128;-40
2022/07/27 07:18:07;;;;;;;0.52;0.40;;;21.70;96.60;;;;;;4837166;29;20033;-35
2022/07/27 07:20:33;;;;;;;5.65;0.85;;;22.20;95.70;;;;;;4834878;29;20033;-38
2022/07/27 07:22:59;;;;;;;0.70;0.35;;;22.60;95.60;;;;;;4839406;29;20026;-37
2022/07/27 07:25:26;;;;;;;7.53;1.05;;;22.80;95.30;;;;;;4839477;29;20086;-40
2022/07/27 07:27:53;;;;;;;9.43;0.55;;;22.90;95.60;;;;;;4840851;29;20402;-37
2022/07/27 07:30:20;;;;;;;4.60;0.50;;;22.80;95.70;;;;;;4836690;29;20030;-39
2022/07/27 07:32:46;;;;;;;4.20;0.60;;;22.70;96.00;;;;;;4825725;29;20089;-41
2022/07/27 07:35:12;;;;;;;4.03;0.88;;;22.20;96.50;;;;;;4827676;29;20584;-33
2022/07/27 07:37:38;;;;;;;4.40;0.68;;;21.60;96.60;;;;;;4835557;29;20132;-39
2022/07/27 07:40:05;;;;;;;3.55;0.40;;;21.10;97.00;;;;;;4833792;29;20129;-36
2022/07/27 07:42:31;;;;;;;1.17;0.90;;;20.50;97.40;;;;;;4839562;29;20033;-36
2022/07/27 07:44:57;;;;;;;3.25;0.82;;;19.90;97.80;;;;;;4833165;29;20578;-32
2022/07/27 07:47:23;;;;;;;0.73;0.40;;;19.50;98.10;;;;;;4836763;29;20486;-37
2022/07/27 07:49:49;;;;;;;4.63;0.50;;;19.20;98.20;;;;;;4836795;29;20428;-40
2022/07/27 07:52:14;;;;;;;2.25;0.60;;;19.10;98.30;;;;;;4827332;29;20841;-41
2022/07/27 07:54:40;;;;;;;1.92;0.60;;;19.20;98.50;;;;;;4837059;29;20030;-34
2022/07/27 07:57:06;;;;;;;3.30;0.73;;;19.10;98.40;;;;;;4834948;29;20037;-34
2022/07/27 07:59:31;;;;;;;4.93;0.60;;;19.10;98.30;;;;;;4833556;29;20037;-55
2022/07/27 08:01:57;;;;;;;4.38;0.60;;;19.30;98.60;;;;;;4836787;29;20037;-31
2022/07/27 08:04:23;;;;;;;5.10;0.55;;;19.40;98.20;;;;;;4832388;29;20030;-37
2022/07/27 08:06:48;;;;;;;1.55;0.57;;;19.40;97.00;;;;;;4833858;29;20034;-41
2022/07/27 08:09:16;;;;;;;1.65;0.57;;;19.30;97.10;;;;;;4821333;29;20029;-33
2022/07/27 08:11:42;;;;;;;;;;;19.50;97.40;;;;;;4832675;29;20589;-40
2022/07/27 08:14:08;;;;;;;1.30;0.50;;;19.50;96.70;;;;;;4831956;29;19912;-36
2022/07/27 08:16:33;;;;;;;1.85;0.57;;;19.40;97.30;;;;;;4841759;29;20030;-33
2022/07/27 08:18:59;;;;;;;3.78;0.63;;;19.40;97.40;;;;;;4830570;29;20105;-38
2022/07/27 08:21:24;;;;;;;1.73;0.45;;;19.40;97.40;;;;;;4838911;29;20025;-33
2022/07/27 08:23:50;;;;;;;1.17;0.60;;;19.60;97.00;;;;;;4836851;29;20569;-36
2022/07/27 08:26:16;;;;;;;2.50;0.40;;;19.60;96.80;;;;;;4831513;29;20469;-41
2022/07/27 08:28:43;;;;;;;1.40;0.63;;;19.80;96.80;;;;;;4835297;29;20090;-37
2022/07/27 08:31:08;;;;;;;1.10;0.35;;;20.10;97.00;;;;;;4824373;29;20033;-39
2022/07/27 08:33:34;;;;;;;0.38;0.38;;;20.40;97.30;;;;;;4835242;29;20456;-35
2022/07/27 08:36:00;;;;;;;0.90;0.52;;;20.40;97.00;;;;;;4828744;29;20592;-38
2022/07/27 08:38:26;;;;;;;4.03;0.52;;;20.30;97.10;;;;;;4839160;29;20022;-46
2022/07/27 08:40:54;;;;;;;0.93;0.50;;;20.60;96.90;;;;;;4825723;29;20046;-39
2022/07/27 08:43:20;;;;;;;7.70;0.80;;;20.90;96.30;;;;;;4831654;29;20670;-42
2022/07/27 08:45:56;;;;;;;2.70;0.40;;;20.90;96.00;;;;;;4832012;29;20242;-38
2022/07/27 08:48:24;;;;;;;1.07;0.40;;;20.80;96.10;;;;;;4831982;29;20084;-41
2022/07/27 08:50:50;;;;;;;1.98;0.50;;;20.80;96.80;;;;;;4828968;29;20242;-40
2022/07/27 08:53:17;;;;;;;1.33;0.50;;;21.00;96.70;;;;;;4824338;29;20116;-40
2022/07/27 08:55:44;;;;;;;0.47;0.30;;;21.30;96.40;;;;;;4821416;29;20046;-41
2022/07/27 08:58:11;;;;;;;2.08;0.55;;;21.60;96.10;;;;;;4828922;29;20061;-40
2022/07/27 09:00:39;;;;;;;;;;;21.70;95.90;;;;;;4825079;29;20490;-37
2022/07/27 09:03:05;;;;;;;1.30;0.60;;;21.40;95.60;;;;;;4834680;29;19919;-34
2022/07/27 09:05:31;;;;;;;1.35;0.55;;;21.60;95.60;;;;;;4830687;29;20033;-37
2022/07/27 09:08:20;;;;;;;2.17;0.50;;;22.00;95.50;;;;;;4831299;29;20082;-32
2022/07/27 09:10:45;;;;;;;1.38;0.50;;;22.40;95.20;;;;;;4828691;29;20582;-37
2022/07/27 09:13:17;;;;;;;2.08;1.45;;;22.60;94.90;;;;;;4826989;29;20029;-38
2022/07/27 09:15:51;;;;;;;5.20;1.05;;;22.50;94.90;;;;;;4827309;29;20410;-36
2022/07/27 09:18:23;;;;;;;2.03;0.70;;;21.90;95.10;;;;;;4831347;29;20058;-33
2022/07/27 09:21:11;;;;;;;3.03;0.80;;;21.20;95.90;;;;;;4833679;29;20403;-35
2022/07/27 09:23:38;;;;;;;0.75;0.50;;;20.70;96.50;;;;;;4837056;29;20460;-35
2022/07/27 09:26:12;;;;;;;1.77;0.73;;;20.60;96.70;;;;;;4829627;29;20045;-39
2022/07/27 09:28:38;;;;;;;4.07;0.70;;;20.80;96.50;;;;;;4828480;29;20380;-38
2022/07/27 09:31:11;;;;;;;2.60;1.13;;;21.60;96.30;;;;;;4828542;29;20570;-34
2022/07/27 09:33:44;;;;;;;0.75;0.50;;;21.90;95.50;;;;;;4829282;29;20029;-37
2022/07/27 09:36:11;;;;;;;3.67;0.70;;;21.50;95.70;;;;;;4831422;29;20041;-36
2022/07/27 09:38:37;;;;;;;3.22;1.15;;;21.60;95.80;;;;;;4822849;29;20486;-34
2022/07/27 09:41:06;;;;;;;7.00;1.35;;;21.90;95.30;;;;;;4830981;29;20050;-34
2022/07/27 09:43:45;;;;;;;2.65;0.57;;;22.40;94.60;;;;;;4829837;29;20036;-35
2022/07/27 09:46:11;;;;;;;1.52;0.47;;;22.80;94.00;;;;;;4828210;29;20234;-33
2022/07/27 09:48:36;;;;;;;2.63;0.60;;;23.20;93.90;;;;;;4827604;29;20505;-37
2022/07/27 09:51:05;;;;;;;1.30;0.55;;;23.50;93.30;;;;;;4812829;29;20495;-37
2022/07/27 09:53:33;;;;;;;2.88;0.68;;;23.60;93.40;;;;;;4827690;29;20712;-37
2022/07/27 09:56:12;;;;;;;2.78;0.82;;;23.30;93.70;;;;;;4825527;29;20386;-42
2022/07/27 09:58:52;;;;;;;5.75;0.93;;;22.60;93.90;;;;;;4826250;29;20017;-38
2022/07/27 10:01:23;;;;;;;0.38;0.30;;;22.30;94.10;;;;;;4823525;29;20380;-41
2022/07/27 10:03:54;;;;;;;0.82;0.38;;;22.70;93.70;;;;;;4829410;29;20033;-39
2022/07/27 10:06:21;;;;;;;3.50;0.95;;;23.00;93.40;;;;;;4827393;29;20428;-37
2022/07/27 10:08:49;;;;;;;4.35;0.40;;;23.40;93.30;;;;;;4835358;29;20495;-39
2022/07/27 10:11:15;;;;;;;0.80;0.40;;;22.90;93.30;;;;;;4826977;29;20025;-38
2022/07/27 10:13:41;;;;;;;0.70;0.40;;;22.60;93.10;;;;;;4819284;29;20037;-36
2022/07/27 10:16:12;;;;;;;3.08;1.10;;;22.50;93.60;;;;;;4833861;29;20033;-38
2022/07/27 10:18:51;;;;;;;2.20;0.50;;;22.90;93.10;;;;;;4817391;29;20132;-36
2022/07/27 10:21:17;;;;;;;5.70;1.30;;;22.90;93.00;;;;;;4825185;29;20073;-39
2022/07/27 10:24:00;;;;;;;6.32;1.20;;;22.70;93.50;;;;;;4823358;29;20086;-37
2022/07/27 10:26:30;;;;;;;1.83;0.60;;;23.00;93.90;;;;;;4827659;29;21088;-39
2022/07/27 10:29:13;;;;;;;6.18;0.35;;;23.40;92.90;;;;;;4812336;29;20033;-34
2022/07/27 10:31:59;;;;;;;2.22;0.70;;;23.30;92.50;;;;;;4829588;29;20042;-36
2022/07/27 10:34:36;;;;;;;0.52;0.30;;;24.00;92.40;;;;;;4826295;29;20037;-39
2022/07/27 10:37:12;;;;;;;0.30;0.30;;;23.70;92.00;;;;;;4827060;29;20042;-34
2022/07/27 10:39:41;;;;;;;1.85;0.40;;;22.80;92.90;;;;;;4826075;29;20050;-38
2022/07/27 10:42:29;;;;;;;0.65;0.28;;;22.10;93.30;;;;;;4832606;29;20568;-38
2022/07/27 10:45:02;;;;;;;1.85;0.70;;;21.60;94.00;;;;;;4837650;29;20143;-36
2022/07/27 10:47:43;;;;;;;0.70;0.45;;;21.70;93.90;;;;;;4824346;29;20390;-41
2022/07/27 10:50:15;;;;;;;4.75;0.60;;;21.70;93.50;;;;;;4831465;29;20036;-39
2022/07/27 10:52:53;;;;;;;1.45;0.40;;;21.70;94.30;;;;;;4826701;29;20034;-38
2022/07/27 10:55:31;;;;;;;1.65;0.50;;;21.50;93.80;;;;;;4835066;29;20053;-38
2022/07/27 10:58:17;;;;;;;1.52;0.63;;;21.20;93.90;;;;;;4835046;29;20401;-36
2022/07/27 11:00:48;;;;;;;4.70;0.85;;;20.80;94.30;;;;;;4839265;29;20022;-35
2022/07/27 11:03:21;;;;;;;2.60;0.60;;;20.50;94.40;;;;;;4839949;29;20222;-50
2022/07/27 11:05:54;;;;;;;0.95;0.50;;;20.40;94.60;;;;;;4838008;29;20036;-39
2022/07/27 11:08:24;;;;;;;2.92;0.70;;;20.80;95.00;;;;;;4841419;29;20033;-38
2022/07/27 11:10:50;;;;;;;0.95;0.43;;;21.40;94.70;;;;;;4836224;29;20386;-36
2022/07/27 11:13:18;;;;;;;1.40;0.50;;;22.00;94.80;;;;;;4823396;29;20042;-38
2022/07/27 11:16:01;;;;;;;0.95;0.50;;;22.40;93.90;;;;;;4833896;29;20045;-33
2022/07/27 11:21:17;;;;;;;2.30;0.90;;;23.00;93.40;;;;;;4855455;29;20084;-38
2022/07/27 11:23:44;;;;;;;0.88;0.40;;;23.00;93.00;;;;;;4838995;29;20029;-36
2022/07/27 11:26:10;;;;;;;0.45;0.43;;;23.00;92.50;;;;;;4836090;29;20693;-35
2022/07/27 11:28:36;;;;;;;1.02;0.20;;;22.60;93.00;;;;;;4835507;29;20033;-34
2022/07/27 11:31:03;;;;;;;1.38;0.50;;;22.00;93.10;;;;;;4837585;29;20523;-40
2022/07/27 11:33:29;;;;;;;1.00;0.38;;;21.90;93.50;;;;;;4835429;29;20029;-35
2022/07/27 11:35:58;;;;;;;0.80;0.30;;;21.90;93.90;;;;;;4830260;29;20510;-34
2022/07/27 11:38:24;;;;;;;1.00;0.43;;;21.90;93.90;;;;;;4834566;29;20509;-37
2022/07/27 11:40:51;;;;;;;0.50;0.20;;;22.00;94.20;;;;;;4843582;29;20057;-37
2022/07/27 11:43:35;;;;;;;3.13;0.43;;;22.10;93.60;;;;;;4839864;29;20498;-39
2022/07/27 11:46:16;;;;;;;0.88;0.43;;;22.20;93.80;;;;;;4841622;29;20069;-37
2022/07/27 11:48:53;;;;;;;0.43;0.40;;;22.50;93.90;;;;;;4836252;29;20482;-39
2022/07/27 11:51:20;;;;;;;1.70;1.02;;;22.60;93.80;;;;;;4832883;29;20457;-40
2022/07/27 11:53:46;;;;;;;0.37;0.30;;;22.30;93.50;;;;;;4842115;29;20037;-36
2022/07/27 11:56:19;;;;;;;0.95;0.45;;;22.00;94.10;;;;;;4837778;29;20029;-36
2022/07/27 11:59:08;;;;;;;0.77;0.30;;;21.60;94.10;;;;;;4838366;29;20117;-38
2022/07/27 12:01:54;;;;;;;2.55;0.82;;;21.20;94.30;;;;;;4839917;29;20117;-37
2022/07/27 12:04:31;;;;;;;3.22;0.60;;;20.80;94.00;;;;;;4837767;29;20037;-40
2022/07/27 12:07:04;;;;;;;0.45;0.45;;;20.50;94.20;;;;;;4834874;29;20037;-40
2022/07/27 12:09:33;;;;;;;6.18;0.35;;;20.80;94.40;;;;;;4818530;29;20550;-36
2022/07/27 12:12:15;;;;;;;1.63;0.30;;;21.20;93.50;;;;;;4827248;29;20337;-40
2022/07/27 12:14:44;;;;;;;0.50;0.45;;;21.70;93.00;;;;;;4845214;29;20036;-36
2022/07/27 12:17:32;;;;;;;2.20;0.60;;;22.00;93.30;;;;;;4837965;29;20038;-38
2022/07/27 12:20:10;;;;;;;0.20;0.20;;;22.30;93.60;;;;;;4831096;29;20383;-34
2022/07/27 12:22:44;;;;;;;1.20;0.30;;;22.60;93.10;;;;;;4814041;29;20200;-35
2022/07/27 12:25:16;;;;;;;0.63;0.40;;;23.00;91.70;;;;;;4834000;29;20553;-38
2022/07/27 12:28:05;;;;;;;0.70;0.40;;;22.90;92.40;;;;;;4840412;29;20112;-35
2022/07/27 12:30:39;;;;;;;0.47;0.22;;;22.60;92.70;;;;;;4842933;29;20042;-40
2022/07/27 12:33:29;;;;;;;0.55;0.50;;;22.00;93.00;;;;;;4838841;29;20611;-38
2022/07/27 12:35:58;;;;;;;5.05;0.38;;;21.90;93.80;;;;;;4834612;29;20045;-33
2022/07/27 12:38:24;;;;;;;0.65;0.40;;;22.00;94.20;;;;;;4843052;29;20029;-33
2022/07/27 12:40:54;;;;;;;3.28;0.70;;;22.20;94.30;;;;;;4841951;29;20065;-38
2022/07/27 12:43:24;;;;;;;4.28;0.63;;;22.60;93.80;;;;;;4833507;29;20030;-38
2022/07/27 12:45:51;;;;;;;1.40;0.35;;;22.40;94.40;;;;;;4833143;29;20532;-42
2022/07/27 12:48:35;;;;;;;7.28;0.73;;;22.30;93.90;;;;;;4836024;29;20545;-37
2022/07/27 12:51:03;;;;;;;3.88;0.82;;;21.90;93.80;;;;;;4833817;29;20499;-38
2022/07/27 12:53:30;;;;;;;0.75;0.50;;;21.80;94.50;;;;;;4835401;29;20034;-37
2022/07/27 12:55:58;;;;;;;0.30;0.30;;;22.00;94.50;;;;;;4831271;29;20546;-33
2022/07/27 12:58:24;;;;;;;1.55;0.40;;;22.10;93.90;;;;;;4833780;29;20022;-36
2022/07/27 13:00:50;;;;;;;5.57;0.50;;;22.00;93.80;;;;;;4832480;29;20368;-36